To NAV CANADA Home Page Login to a new session Search on AWWS site Feedback and Comments Disclaimer Vers la page française équivalente Tips FAQ What's new on the site To the Forecasts and Observations / NOTAM section To "File a Flight Plan" website Publications and other links Update of the User's profile FIC Telephone Numbers My Weather Data Folder Route Weather Data Regional Weather Data Local Weather Data To the Forecasts and Observations / NOTAM section
Request Generated 04/23/2014 at 20:35:24 UTC . Weather information available at that time is displayed.

METAR/TAF

CHESTERFIELD INLET/NU    

METAR CYCS 232000Z 30009KT 15SM SKC M13/M16 A3036 RMK SLP281=
METAR CYCS 231900Z 31011KT 15SM SKC M13/M16 A3035 RMK SLP278=
METAR CYCS 231800Z 31011KT 15SM SKC M14/M17 A3034 RMK SLP274=

CYCS - No TAF is issued for this station

Your time UTC time
Weather data provided by Environment Canada and NAV CANADA